»·PEaware :: N1218S KCNO-KFUL

N1218S :: KCNO-KFUL

FLIGHT INFORMATION

Flight Status: Arrived
Operator: Privately registered:
United States
More flights under this callsign
Pilot: Anonymous 17765 (17765)
Aircraft: CESSNA 172 SKYHAWK
(C172)
More flights by this aircraft type
Origin: KCNO Chino
United States
Destination: KFUL Fullerton Mun
United States
More flights between these airports :: More routes between these airports
Route: PDZ PDZ27015 DOWDD V394 SLI
File this flight plan on PilotEdge
Remarks: IFR conditions
Altitude:
(Current/Filed)
4,000ft
Speed:
(Current/Filed)
115kts
Departed: 08-Sep-19 04:25 PM
Arrived: 08-Sep-19 05:37 PM
Distance/Time
Traveled:
18nm/1:12
Distance/Time
To Go:
Arrived

Flight Plot

Page will automatically refresh every two minutes.


Map Options




Map Legend


Flown Route
Filed Route
Departure Airport
Arrival Airport
Navaid (VOR, NDB)
Fix

Horizontal Profiles

Position Reports

Time Latitude Longitude Heading Altitude Ground
Speed
08-Sep-19 15:39 33.969161 -117.643506 43 655ft 0kts
08-Sep-19 15:40 33.969161 -117.643506 43 655ft 0kts
08-Sep-19 15:41 33.969165 -117.643502 43 655ft 0kts
08-Sep-19 15:42 33.969167 -117.643499 43 655ft 0kts
08-Sep-19 15:43 33.969169 -117.643497 43 655ft 0kts
08-Sep-19 15:43 33.969171 -117.643494 43 655ft 0kts
08-Sep-19 15:45 33.969173 -117.643492 43 655ft 0kts
08-Sep-19 15:46 33.969176 -117.643489 43 655ft 0kts
08-Sep-19 15:46 33.969177 -117.643487 43 655ft 0kts
08-Sep-19 15:49 33.969449 -117.643489 334 655ft 7kts
08-Sep-19 15:49 33.970770 -117.644095 45 655ft 8kts
08-Sep-19 15:50 33.971819 -117.643221 97 655ft 0kts
08-Sep-19 15:51 33.971818 -117.643220 97 655ft 0kts
08-Sep-19 15:53 33.971818 -117.643219 97 655ft 0kts
08-Sep-19 15:53 33.971818 -117.643218 97 655ft 0kts
08-Sep-19 15:54 33.971818 -117.643217 98 655ft 0kts
08-Sep-19 15:55 33.971818 -117.643215 98 655ft 0kts
08-Sep-19 15:56 33.971818 -117.643214 98 655ft 0kts
08-Sep-19 15:57 33.971818 -117.643213 98 655ft 0kts
08-Sep-19 15:58 33.971818 -117.643212 98 655ft 0kts
08-Sep-19 15:59 33.971817 -117.643211 98 655ft 0kts
08-Sep-19 16:00 33.971817 -117.643209 98 655ft 0kts
08-Sep-19 16:01 33.971817 -117.643208 98 655ft 0kts
08-Sep-19 16:02 33.971817 -117.643207 98 655ft 0kts
08-Sep-19 16:03 33.971817 -117.643206 98 655ft 0kts
08-Sep-19 16:04 33.971817 -117.643205 98 655ft 0kts
08-Sep-19 16:05 33.971816 -117.643203 98 655ft 0kts
08-Sep-19 16:06 33.971816 -117.643202 98 655ft 0kts
08-Sep-19 16:07 33.971816 -117.643201 98 655ft 0kts
08-Sep-19 16:08 33.971816 -117.643200 98 655ft 0kts
08-Sep-19 16:09 33.971816 -117.643199 98 655ft 0kts
08-Sep-19 16:10 33.971812 -117.643162 97 655ft 2kts
08-Sep-19 16:11 33.973818 -117.640389 43 655ft 10kts
08-Sep-19 16:12 33.976582 -117.636786 48 655ft 16kts
08-Sep-19 16:13 33.977023 -117.631873 91 655ft 14kts
08-Sep-19 16:14 33.976527 -117.631014 184 655ft 0kts
08-Sep-19 16:15 33.976525 -117.631014 184 655ft 0kts
08-Sep-19 16:16 33.976523 -117.631015 184 655ft 0kts
08-Sep-19 16:17 33.976521 -117.631015 184 655ft 0kts
08-Sep-19 16:18 33.976520 -117.631015 184 655ft 0kts
08-Sep-19 16:19 33.976518 -117.631015 184 655ft 0kts
08-Sep-19 16:20 33.976516 -117.631015 184 655ft 0kts
08-Sep-19 16:21 33.976514 -117.631016 184 655ft 0kts
08-Sep-19 16:22 33.976512 -117.631016 184 655ft 0kts
08-Sep-19 16:23 33.975853 -117.631733 268 655ft 13kts
08-Sep-19 16:24 33.975500 -117.656027 273 1127ft 102kts
08-Sep-19 16:25 33.975453 -117.693518 272 2024ft 114kts
08-Sep-19 16:26 33.975085 -117.731854 272 2920ft 113kts
08-Sep-19 16:27 33.974725 -117.770189 272 3713ft 114kts
08-Sep-19 16:28 33.974413 -117.809863 272 4062ft 122kts
08-Sep-19 16:29 33.968911 -117.848880 230 4074ft 123kts
08-Sep-19 16:30 33.944086 -117.877775 224 4061ft 124kts
08-Sep-19 16:31 33.918578 -117.906010 224 4061ft 124kts
08-Sep-19 16:32 33.892922 -117.934319 224 4061ft 124kts
08-Sep-19 16:33 33.867403 -117.962442 224 4061ft 124kts
08-Sep-19 16:34 33.841916 -117.990834 232 4058ft 124kts
08-Sep-19 16:35 33.816562 -118.018330 222 4062ft 124kts
08-Sep-19 16:36 33.790999 -118.046200 224 4060ft 123kts
08-Sep-19 16:37 33.763985 -118.069596 213 3733ft 112kts
08-Sep-19 16:38 33.737941 -118.089244 213 3229ft 111kts
08-Sep-19 16:39 33.710782 -118.109880 213 2748ft 118kts
08-Sep-19 16:40 33.681460 -118.109573 178 2648ft 102kts
08-Sep-19 16:41 33.688825 -118.125348 5 2686ft 107kts
08-Sep-19 16:42 33.715910 -118.104610 33 2663ft 120kts
08-Sep-19 16:43 33.744826 -118.087953 36 2664ft 113kts
08-Sep-19 16:44 33.770040 -118.065899 33 2660ft 111kts
08-Sep-19 16:45 33.795666 -118.044997 32 2531ft 103kts
08-Sep-19 16:46 33.816301 -118.027414 33 1980ft 91kts
08-Sep-19 16:47 33.836330 -118.010284 33 1545ft 81kts
08-Sep-19 16:48 33.857076 -117.992575 33 981ft 95kts
08-Sep-19 16:49 33.877513 -117.975036 34 986ft 83kts
08-Sep-19 16:50 33.878859 -117.950438 157 1285ft 95kts
08-Sep-19 16:51 33.855172 -117.939432 157 1769ft 89kts
08-Sep-19 16:52 33.832362 -117.928850 158 2254ft 86kts
08-Sep-19 16:53 33.815367 -117.948924 247 2676ft 107kts
08-Sep-19 16:54 33.804506 -117.982877 253 2661ft 108kts
08-Sep-19 16:55 33.794376 -118.017004 253 2661ft 108kts
08-Sep-19 16:56 33.784246 -118.051161 253 2661ft 108kts
08-Sep-19 16:57 33.760593 -118.062017 139 2662ft 110kts
08-Sep-19 16:58 33.760637 -118.029795 65 2664ft 104kts
08-Sep-19 16:59 33.770606 -117.996927 67 2661ft 104kts
08-Sep-19 17:00 33.780542 -117.964082 59 2658ft 104kts
08-Sep-19 17:01 33.804013 -117.964323 305 2661ft 102kts
08-Sep-19 17:02 33.788330 -117.977965 144 2962ft 122kts
08-Sep-19 17:03 33.759094 -117.953391 143 3032ft 111kts
08-Sep-19 17:04 33.735885 -117.934142 143 3066ft 101kts
08-Sep-19 17:05 33.712108 -117.914387 143 3062ft 104kts
08-Sep-19 17:06 33.688184 -117.894491 143 3061ft 105kts
08-Sep-19 17:07 33.667021 -117.895105 279 3076ft 99kts
08-Sep-19 17:08 33.671485 -117.929194 282 3063ft 107kts
08-Sep-19 17:09 33.676309 -117.964848 282 3061ft 108kts
08-Sep-19 17:10 33.684734 -117.998282 326 3075ft 102kts
08-Sep-19 17:11 33.708957 -118.019630 314 2583ft 116kts
08-Sep-19 17:12 33.732054 -118.048072 316 1992ft 120kts
08-Sep-19 17:13 33.754956 -118.075715 317 1648ft 106kts
08-Sep-19 17:14 33.773550 -118.098080 317 1113ft 79kts
08-Sep-19 17:15 33.789302 -118.117013 317 731ft 83kts
08-Sep-19 17:16 33.805752 -118.136498 320 362ft 82kts
08-Sep-19 17:17 33.821138 -118.159987 262 1437ft 100kts
08-Sep-19 17:18 33.794107 -118.180654 204 2144ft 128kts
08-Sep-19 17:19 33.760307 -118.197887 203 2758ft 134kts
08-Sep-19 17:20 33.724501 -118.215935 203 3069ft 150kts
08-Sep-19 17:21 33.684351 -118.235904 203 3062ft 158kts
08-Sep-19 17:22 33.649574 -118.253079 203 3034ft 105kts
08-Sep-19 17:23 33.630593 -118.247438 72 3087ft 93kts
08-Sep-19 17:24 33.638335 -118.211890 72 3067ft 120kts
08-Sep-19 17:25 33.650584 -118.174638 52 3066ft 121kts
08-Sep-19 17:26 33.673262 -118.144589 35 3061ft 121kts
08-Sep-19 17:27 33.699996 -118.124569 30 2659ft 105kts
08-Sep-19 17:28 33.723679 -118.105003 33 2670ft 110kts
08-Sep-19 17:29 33.749650 -118.083046 33 2662ft 115kts
08-Sep-19 17:30 33.776125 -118.060801 32 2661ft 116kts
08-Sep-19 17:31 33.799707 -118.041550 32 2254ft 89kts
08-Sep-19 17:32 33.819862 -118.023872 33 1585ft 84kts
08-Sep-19 17:33 33.839577 -118.007770 33 1414ft 90kts
08-Sep-19 17:34 33.860044 -117.989110 40 804ft 88kts
08-Sep-19 17:35 33.870693 -117.964963 15 727ft 81kts
08-Sep-19 17:36 33.871473 -117.982895 251 99ft 15kts
08-Sep-19 17:37 33.870992 -117.983170 168 99ft 0kts
08-Sep-19 17:38 33.871310 -117.980698 76 99ft 16kts
08-Sep-19 17:39 33.870640 -117.978626 76 99ft 0kts

Navigation Log

Ident Type
Flight plan parsing failed, navigation log unavailable